Time;durP1;ratioP1;P1;durP2;ratioP2;P2;SDS_P1;SDS_P2;PMS_P1;PMS_P2;Temp;Humidity;BMP_temperature;BMP_pressure;BME280_temperature;BME280_humidity;BME280_pressure;Samples;Min_cycle;Max_cycle;Signal;HPM_P1;HPM_P2
2022/12/08 00:00:52;;;;;;;7.38;0.80;;;2.10;99.90;;;;;;5030093;28;20491;-72
2022/12/08 00:03:17;;;;;;;4.13;0.73;;;2.10;99.90;;;;;;5012239;28;20396;-72
2022/12/08 00:11:19;;;;;;;7.80;1.08;;;2.10;99.90;;;;;;4988052;28;20089;-72
2022/12/08 00:13:44;;;;;;;7.88;0.82;;;2.10;99.90;;;;;;4987815;28;20070;-72
2022/12/08 00:16:10;;;;;;;9.00;1.33;;;2.10;99.90;;;;;;4987883;28;20054;-72
2022/12/08 00:18:36;;;;;;;8.25;1.08;;;2.10;99.90;;;;;;4970132;28;20108;-72
2022/12/08 00:21:02;;;;;;;5.68;1.10;;;2.20;99.90;;;;;;4987662;28;20050;-72
2022/12/08 00:23:28;;;;;;;7.70;0.82;;;2.20;99.90;;;;;;4971631;28;20081;-73
2022/12/08 00:25:53;;;;;;;5.53;0.93;;;2.20;99.90;;;;;;4971393;28;20902;-74
2022/12/08 00:28:19;;;;;;;7.10;1.02;;;2.20;99.90;;;;;;4986055;28;20398;-74
2022/12/08 00:30:45;;;;;;;9.77;1.02;;;2.20;99.90;;;;;;4971623;28;20054;-73
2022/12/08 00:33:11;;;;;;;10.20;1.50;;;2.20;99.90;;;;;;4987590;28;20209;-73
2022/12/08 00:35:37;;;;;;;3.10;1.02;;;2.20;99.90;;;;;;4971349;28;20046;-73
2022/12/08 00:38:03;;;;;;;7.88;1.13;;;2.30;99.90;;;;;;4970114;28;20527;-72
2022/12/08 00:40:29;;;;;;;7.50;1.00;;;2.30;99.90;;;;;;4987647;28;20078;-72
2022/12/08 00:42:54;;;;;;;5.25;1.30;;;2.30;99.90;;;;;;4987612;28;20110;-73
2022/12/08 00:45:20;;;;;;;6.18;2.17;;;2.30;99.90;;;;;;4985831;28;20077;-73
2022/12/08 00:47:46;;;;;;;7.07;1.05;;;2.40;99.90;;;;;;5032296;28;20037;-73
2022/12/08 00:50:11;;;;;;;4.35;1.27;;;2.40;99.90;;;;;;5033150;28;20057;-72
2022/12/08 00:52:37;;;;;;;3.10;0.88;;;2.40;99.90;;;;;;5015559;28;20057;-71
2022/12/08 00:55:04;;;;;;;7.50;1.25;;;2.40;99.90;;;;;;5033300;28;20388;-73
2022/12/08 00:57:29;;;;;;;7.38;1.15;;;2.40;99.90;;;;;;5014465;28;20057;-74
2022/12/08 00:59:56;;;;;;;6.40;1.30;;;2.40;99.90;;;;;;5033275;28;20041;-71
2022/12/08 01:02:22;;;;;;;4.30;1.52;;;2.40;99.90;;;;;;5032363;28;20128;-72
2022/12/08 01:04:48;;;;;;;10.43;1.55;;;2.40;99.90;;;;;;5014660;28;20139;-72
2022/12/08 01:07:13;;;;;;;8.57;2.03;;;2.30;99.90;;;;;;5032547;28;20583;-71
2022/12/08 01:09:39;;;;;;;4.97;1.30;;;2.30;99.90;;;;;;5032884;28;20136;-72
2022/12/08 01:12:05;;;;;;;3.53;1.23;;;2.30;99.90;;;;;;5015369;28;20571;-75
2022/12/08 01:14:31;;;;;;;3.40;1.13;;;2.30;99.90;;;;;;5013698;28;20111;-73
2022/12/08 01:16:56;;;;;;;6.78;1.40;;;2.30;99.90;;;;;;5015169;28;20053;-72
2022/12/08 01:19:22;;;;;;;5.22;1.15;;;2.30;99.90;;;;;;5032898;28;20456;-72
2022/12/08 01:21:48;;;;;;;4.75;1.10;;;2.20;99.90;;;;;;5032995;28;20038;-72
2022/12/08 01:24:16;;;;;;;7.82;0.90;;;2.20;99.90;;;;;;5013376;28;20064;-73
2022/12/08 01:26:42;;;;;;;5.53;0.73;;;2.20;99.90;;;;;;5006482;28;20045;-71
2022/12/08 01:29:09;;;;;;;4.47;0.82;;;2.20;99.90;;;;;;5028959;28;20048;-72
2022/12/08 01:31:34;;;;;;;4.35;0.90;;;2.20;99.90;;;;;;4995350;28;20045;-72
2022/12/08 01:34:00;;;;;;;3.75;0.90;;;2.10;99.90;;;;;;4995442;28;20056;-72
2022/12/08 01:36:28;;;;;;;5.03;1.15;;;2.10;99.90;;;;;;5012455;28;20117;-73
2022/12/08 01:38:56;;;;;;;3.92;1.10;;;2.10;99.90;;;;;;5012617;28;20071;-72
2022/12/08 01:41:25;;;;;;;3.58;0.80;;;2.10;99.90;;;;;;5012709;28;20053;-71
2022/12/08 01:44:12;;;;;;;6.78;0.90;;;2.10;99.90;;;;;;5032681;28;20128;-73
2022/12/08 01:46:42;;;;;;;4.65;0.65;;;2.10;99.90;;;;;;5032464;28;20065;-72
2022/12/08 01:49:17;;;;;;;4.35;0.77;;;2.10;99.90;;;;;;5032102;28;20080;-72
2022/12/08 01:51:47;;;;;;;4.15;0.90;;;2.10;99.90;;;;;;5012461;28;20386;-73
2022/12/08 01:54:13;;;;;;;3.40;0.50;;;2.30;99.90;;;;;;5032536;28;20053;-71
2022/12/08 01:57:07;;;;;;;0.55;0.30;;;2.10;99.90;;;;;;5031704;28;20041;-71
2022/12/08 01:59:37;;;;;;;1.33;0.40;;;2.10;99.90;;;;;;4974792;28;20054;-73
2022/12/08 02:02:03;;;;;;;2.35;0.50;;;2.10;99.90;;;;;;4975290;28;20054;-73
2022/12/08 02:04:29;;;;;;;2.05;0.60;;;2.10;99.90;;;;;;4992679;28;20089;-72
2022/12/08 02:06:55;;;;;;;6.88;0.70;;;2.10;99.90;;;;;;4974723;28;20042;-72
2022/12/08 02:09:21;;;;;;;3.00;0.43;;;2.10;99.90;;;;;;5011213;28;20052;-72
2022/12/08 02:11:47;;;;;;;2.95;0.50;;;2.10;99.90;;;;;;4995033;28;20057;-73
2022/12/08 02:14:14;;;;;;;3.55;0.55;;;2.10;99.90;;;;;;5012476;28;20052;-72
2022/12/08 02:17:05;;;;;;;3.40;0.32;;;2.10;99.90;;;;;;5012248;28;20133;-72
2022/12/08 02:19:58;;;;;;;1.95;0.60;;;2.10;99.90;;;;;;5012761;28;20510;-72
2022/12/08 02:22:45;;;;;;;3.92;0.40;;;2.00;99.90;;;;;;5011929;28;20635;-73
2022/12/08 02:25:30;;;;;;;7.15;1.05;;;2.00;99.90;;;;;;4995330;28;20111;-72
2022/12/08 02:28:25;;;;;;;1.98;0.30;;;2.10;99.90;;;;;;4994799;28;20084;-73
2022/12/08 02:31:23;;;;;;;1.47;0.50;;;2.10;99.90;;;;;;5012092;28;20042;-73
2022/12/08 02:34:17;;;;;;;2.53;0.40;;;2.10;99.90;;;;;;4993906;28;20053;-73
2022/12/08 02:36:56;;;;;;;3.23;0.70;;;2.10;99.90;;;;;;5011873;28;20444;-73
2022/12/08 02:39:22;;;;;;;2.38;0.50;;;2.10;99.90;;;;;;4994204;28;20285;-73
2022/12/08 02:41:55;;;;;;;3.15;0.52;;;2.10;99.90;;;;;;4994093;28;20748;-73
2022/12/08 02:44:53;;;;;;;3.53;0.43;;;2.10;99.90;;;;;;4994097;28;20145;-73
2022/12/08 02:47:22;;;;;;;1.77;0.45;;;2.10;99.90;;;;;;4990184;28;20050;-73
2022/12/08 02:49:47;;;;;;;2.85;0.63;;;2.20;99.90;;;;;;4972984;28;20054;-74
2022/12/08 02:52:13;;;;;;;3.30;0.60;;;2.20;99.90;;;;;;4989082;28;20516;-73
2022/12/08 02:54:48;;;;;;;7.82;1.02;;;2.20;99.90;;;;;;4989159;28;20145;-73
2022/12/08 02:57:32;;;;;;;2.55;0.50;;;2.20;99.90;;;;;;4990263;28;20140;-73
2022/12/08 03:00:07;;;;;;;6.20;0.60;;;2.20;99.90;;;;;;4989074;28;20058;-72
2022/12/08 03:02:38;;;;;;;3.72;0.40;;;2.20;99.90;;;;;;5003318;28;20759;-73
2022/12/08 03:05:12;;;;;;;4.25;0.45;;;2.20;99.90;;;;;;4989056;28;20078;-72
2022/12/08 03:07:54;;;;;;;4.97;0.60;;;2.20;99.90;;;;;;4989904;28;20054;-73
2022/12/08 03:10:28;;;;;;;2.45;0.40;;;2.20;99.90;;;;;;4988038;28;20629;-73
2022/12/08 03:13:16;;;;;;;3.05;0.40;;;2.20;99.90;;;;;;4989936;28;20054;-72
2022/12/08 03:15:47;;;;;;;3.17;0.70;;;2.20;99.90;;;;;;4988897;28;20501;-72
2022/12/08 03:18:15;;;;;;;1.33;0.50;;;2.20;99.90;;;;;;5004185;28;20116;-71
2022/12/08 03:20:43;;;;;;;3.88;0.40;;;2.20;99.90;;;;;;4988579;28;20067;-73
2022/12/08 03:23:13;;;;;;;1.35;0.30;;;2.10;99.90;;;;;;4989130;28;20039;-72
2022/12/08 03:25:44;;;;;;;3.40;0.50;;;2.10;99.90;;;;;;5010607;28;20045;-72
2022/12/08 03:28:11;;;;;;;1.98;0.50;;;2.10;99.90;;;;;;4998941;28;20120;-72
2022/12/08 03:30:40;;;;;;;1.13;0.52;;;2.10;99.90;;;;;;5029776;28;20088;-72
2022/12/08 03:33:13;;;;;;;1.20;0.40;;;2.00;99.90;;;;;;5028402;28;20045;-73
2022/12/08 03:35:40;;;;;;;1.23;0.52;;;2.00;99.90;;;;;;5012231;28;20057;-73
2022/12/08 03:38:09;;;;;;;2.60;0.40;;;1.90;99.90;;;;;;5016398;28;20044;-73
2022/12/08 03:40:36;;;;;;;3.28;0.38;;;1.90;99.90;;;;;;5015106;28;20053;-73
2022/12/08 03:43:02;;;;;;;1.95;0.50;;;1.80;99.90;;;;;;5028675;28;20037;-73
2022/12/08 03:45:28;;;;;;;2.05;0.40;;;1.80;99.90;;;;;;5014997;28;20046;-73
2022/12/08 03:47:54;;;;;;;2.67;0.35;;;1.80;99.90;;;;;;4980720;28;20374;-73
2022/12/08 03:50:20;;;;;;;2.90;0.40;;;1.80;99.90;;;;;;5008955;28;20065;-74
2022/12/08 03:52:45;;;;;;;2.63;0.45;;;1.70;99.90;;;;;;5010120;28;20058;-73
2022/12/08 03:55:11;;;;;;;5.05;0.70;;;1.70;99.90;;;;;;5024122;28;20411;-73
2022/12/08 03:57:37;;;;;;;1.85;0.40;;;1.70;99.90;;;;;;5028258;28;20054;-73
2022/12/08 04:00:05;;;;;;;1.30;0.35;;;1.70;99.90;;;;;;5016461;28;20129;-72
2022/12/08 04:02:31;;;;;;;0.32;0.20;;;1.70;99.90;;;;;;5011820;28;20046;-74
2022/12/08 04:04:56;;;;;;;0.43;0.28;;;1.70;99.90;;;;;;5009269;28;20052;-73
2022/12/08 04:07:22;;;;;;;1.00;0.20;;;1.70;99.90;;;;;;5009520;28;20417;-74
2022/12/08 04:09:48;;;;;;;0.98;0.30;;;1.70;99.90;;;;;;5010108;28;20077;-73
2022/12/08 04:12:13;;;;;;;1.35;0.20;;;1.70;99.90;;;;;;4992190;28;20104;-73
2022/12/08 04:14:39;;;;;;;3.30;0.30;;;1.60;99.90;;;;;;5011310;28;20465;-73
2022/12/08 04:17:04;;;;;;;2.72;0.50;;;2.40;99.90;;;;;;5029319;28;20548;-73
2022/12/08 04:19:30;;;;;;;1.75;0.28;;;1.70;99.90;;;;;;5011632;28;20045;-73
2022/12/08 04:21:56;;;;;;;1.38;0.30;;;1.60;99.90;;;;;;5029280;28;20087;-73
2022/12/08 04:24:21;;;;;;;1.70;0.32;;;1.60;99.90;;;;;;5010027;28;20045;-73
2022/12/08 04:26:48;;;;;;;1.40;0.30;;;1.60;99.90;;;;;;5014370;28;20045;-73
2022/12/08 04:29:14;;;;;;;2.70;0.30;;;1.60;99.90;;;;;;5009821;28;20116;-73
2022/12/08 04:31:40;;;;;;;0.73;0.30;;;1.60;99.90;;;;;;5009760;28;20441;-73
2022/12/08 04:34:06;;;;;;;1.60;0.40;;;1.60;99.90;;;;;;5008925;28;20046;-73
2022/12/08 04:36:32;;;;;;;1.40;0.40;;;1.60;99.90;;;;;;5010595;28;20053;-73
2022/12/08 04:38:57;;;;;;;1.67;0.47;;;1.60;99.90;;;;;;5009598;28;20045;-73
2022/12/08 04:41:23;;;;;;;1.92;0.70;;;1.60;99.90;;;;;;5009648;28;20045;-74
2022/12/08 04:43:48;;;;;;;2.28;0.60;;;1.60;99.90;;;;;;5009622;28;20105;-73
2022/12/08 04:46:14;;;;;;;3.85;0.60;;;1.60;99.90;;;;;;4992380;28;20050;-73
2022/12/08 04:48:40;;;;;;;1.63;0.43;;;1.60;99.90;;;;;;5021568;28;20045;-73
2022/12/08 04:51:06;;;;;;;0.98;0.30;;;1.60;99.90;;;;;;5011169;28;20517;-73
2022/12/08 04:53:32;;;;;;;0.80;0.30;;;1.60;99.90;;;;;;5029218;28;20084;-73
2022/12/08 04:55:58;;;;;;;2.05;0.40;;;1.60;99.90;;;;;;5029250;28;20145;-73
2022/12/08 04:58:23;;;;;;;1.80;0.30;;;1.60;99.90;;;;;;5009741;28;20084;-73
2022/12/08 05:00:49;;;;;;;2.55;0.65;;;1.60;99.90;;;;;;5011667;28;20062;-73
2022/12/08 05:03:15;;;;;;;1.77;0.35;;;1.60;99.90;;;;;;5028863;28;20136;-73
2022/12/08 05:05:42;;;;;;;3.70;0.40;;;1.60;99.90;;;;;;5029025;28;20133;-74
2022/12/08 05:08:09;;;;;;;2.47;0.40;;;1.60;99.90;;;;;;5021206;28;20361;-74
2022/12/08 05:10:35;;;;;;;3.55;0.47;;;1.60;99.90;;;;;;5009686;28;20045;-73
2022/12/08 05:13:01;;;;;;;1.65;0.32;;;1.50;99.90;;;;;;5019289;28;20042;-74
2022/12/08 05:15:27;;;;;;;2.38;0.50;;;1.50;99.90;;;;;;5029215;28;20161;-74
2022/12/08 05:17:52;;;;;;;0.50;0.35;;;1.50;99.90;;;;;;4997443;28;20058;-73
2022/12/08 05:20:18;;;;;;;2.88;0.30;;;1.50;99.90;;;;;;4992241;28;20413;-74
2022/12/08 05:22:44;;;;;;;3.70;0.45;;;1.50;99.90;;;;;;5009284;28;20646;-74
2022/12/08 05:25:09;;;;;;;1.00;0.35;;;1.50;99.90;;;;;;4991440;28;20050;-74
2022/12/08 05:27:36;;;;;;;2.53;0.40;;;1.50;99.90;;;;;;5009268;28;20452;-74
2022/12/08 05:30:01;;;;;;;2.78;0.60;;;1.50;99.90;;;;;;5010358;28;20103;-74
2022/12/08 05:32:27;;;;;;;1.75;0.40;;;1.50;99.90;;;;;;4994963;28;20050;-74
2022/12/08 05:34:53;;;;;;;0.60;0.30;;;1.60;99.90;;;;;;5031584;28;20053;-73
2022/12/08 05:37:18;;;;;;;2.05;0.30;;;1.50;99.90;;;;;;5017138;28;20176;-73
2022/12/08 05:39:44;;;;;;;1.98;0.40;;;1.50;99.90;;;;;;5013611;28;20073;-72
2022/12/08 05:42:10;;;;;;;2.42;0.40;;;1.50;99.90;;;;;;5012886;28;20052;-73
2022/12/08 05:44:35;;;;;;;1.23;0.30;;;1.50;99.90;;;;;;5012780;28;20070;-72
2022/12/08 05:47:01;;;;;;;2.05;0.35;;;1.50;99.90;;;;;;4995293;28;20042;-73
2022/12/08 05:49:26;;;;;;;1.98;0.40;;;1.40;99.90;;;;;;5031582;28;20053;-74
2022/12/08 05:51:52;;;;;;;1.58;0.50;;;1.40;99.90;;;;;;5030538;28;20501;-74
2022/12/08 05:54:18;;;;;;;3.58;0.50;;;1.40;99.90;;;;;;5032128;28;20049;-73
2022/12/08 05:56:43;;;;;;;1.52;0.30;;;1.40;99.90;;;;;;4995225;28;20050;-73
2022/12/08 05:59:12;;;;;;;3.00;0.82;;;1.40;99.90;;;;;;4994752;28;20053;-73
2022/12/08 06:01:38;;;;;;;1.23;0.30;;;1.40;99.90;;;;;;5012848;28;20045;-73
2022/12/08 06:04:03;;;;;;;2.78;0.30;;;1.40;99.90;;;;;;5012084;28;20072;-72
2022/12/08 06:06:30;;;;;;;0.73;0.20;;;1.40;99.90;;;;;;4994608;28;20129;-73
2022/12/08 06:08:56;;;;;;;1.10;0.30;;;1.40;99.90;;;;;;5012103;28;20049;-73
2022/12/08 06:11:24;;;;;;;1.40;0.30;;;1.40;99.90;;;;;;5013346;28;20045;-73
2022/12/08 06:13:50;;;;;;;2.28;0.35;;;1.40;99.90;;;;;;4994272;28;20049;-73
2022/12/08 06:16:16;;;;;;;0.70;0.30;;;1.40;99.90;;;;;;4992182;28;20042;-73
2022/12/08 06:18:42;;;;;;;2.90;0.50;;;1.40;99.90;;;;;;5011690;28;20049;-73
2022/12/08 06:21:10;;;;;;;2.22;0.50;;;1.40;99.90;;;;;;5011914;28;20425;-72
2022/12/08 06:23:36;;;;;;;1.13;0.40;;;1.40;99.90;;;;;;5024563;28;20068;-72
2022/12/08 06:26:11;;;;;;;2.63;0.40;;;1.40;99.90;;;;;;5030755;28;20053;-72
2022/12/08 06:28:37;;;;;;;;;;;1.40;99.90;;;;;;4992770;28;20050;-72
2022/12/08 06:31:21;;;;;;;0.50;0.30;;;1.40;99.90;;;;;;4992164;28;19933;-73
2022/12/08 06:33:47;;;;;;;2.25;0.60;;;1.40;99.90;;;;;;5010097;28;20064;-73
2022/12/08 06:36:15;;;;;;;4.50;0.45;;;1.50;99.90;;;;;;4994410;28;20396;-72
2022/12/08 06:38:40;;;;;;;2.05;0.50;;;1.50;99.90;;;;;;4996253;28;20046;-73
2022/12/08 06:41:06;;;;;;;4.80;0.80;;;1.90;99.90;;;;;;4993969;28;20053;-73
2022/12/08 06:43:32;;;;;;;5.05;0.88;;;1.50;99.90;;;;;;5011603;28;20050;-72
2022/12/08 06:45:59;;;;;;;4.57;1.00;;;1.50;99.90;;;;;;5011284;28;20069;-73
2022/12/08 06:48:24;;;;;;;1.85;0.80;;;1.50;99.90;;;;;;5012643;28;20711;-74
2022/12/08 06:50:50;;;;;;;3.08;0.90;;;1.50;99.90;;;;;;5011574;28;20057;-74
2022/12/08 06:53:16;;;;;;;3.38;0.93;;;1.50;99.90;;;;;;4993675;28;20049;-73
2022/12/08 06:55:52;;;;;;;6.13;0.82;;;1.50;99.90;;;;;;5014552;28;20049;-73
2022/12/08 06:58:18;;;;;;;5.85;1.10;;;1.50;99.90;;;;;;5000513;28;20053;-73
2022/12/08 07:00:44;;;;;;;3.15;0.98;;;1.40;99.90;;;;;;4991792;28;20038;-73
2022/12/08 07:03:11;;;;;;;2.83;0.75;;;1.40;99.90;;;;;;5009427;28;20076;-73
2022/12/08 07:05:37;;;;;;;1.88;0.93;;;1.40;99.90;;;;;;5025683;28;20072;-73
2022/12/08 07:08:05;;;;;;;3.60;0.70;;;1.30;99.90;;;;;;4994769;28;20049;-73
2022/12/08 07:10:31;;;;;;;2.70;0.80;;;1.30;99.90;;;;;;5010937;28;20560;-73
2022/12/08 07:12:57;;;;;;;5.95;0.73;;;1.30;99.90;;;;;;4993585;28;20123;-73
2022/12/08 07:15:23;;;;;;;5.75;1.00;;;1.30;99.90;;;;;;5010858;28;20042;-72
2022/12/08 07:17:48;;;;;;;4.65;0.90;;;1.30;99.90;;;;;;5012184;28;20448;-72
2022/12/08 07:20:14;;;;;;;4.13;1.05;;;1.30;99.90;;;;;;4993222;28;20096;-73
2022/12/08 07:22:40;;;;;;;4.82;0.90;;;1.30;99.90;;;;;;5013109;28;20041;-72
2022/12/08 07:25:06;;;;;;;2.10;0.82;;;1.30;99.90;;;;;;5030445;28;20052;-72
2022/12/08 07:27:32;;;;;;;3.95;1.10;;;1.30;99.90;;;;;;5028501;28;20045;-72
2022/12/08 07:29:58;;;;;;;2.97;1.10;;;1.20;99.90;;;;;;5012369;28;20060;-71
2022/12/08 07:32:23;;;;;;;3.60;1.40;;;1.20;99.90;;;;;;5010368;28;20065;-72
2022/12/08 07:34:49;;;;;;;5.72;1.23;;;1.20;99.90;;;;;;5028992;28;20046;-73
2022/12/08 07:37:14;;;;;;;3.15;1.13;;;1.10;99.90;;;;;;5016570;28;20488;-72
2022/12/08 07:39:40;;;;;;;8.50;2.13;;;1.10;99.90;;;;;;5010529;28;20038;-73
2022/12/08 07:42:06;;;;;;;5.60;1.80;;;1.10;99.90;;;;;;5010646;28;20547;-73
2022/12/08 07:44:31;;;;;;;8.50;1.75;;;1.00;99.90;;;;;;5011577;28;20038;-72
2022/12/08 07:46:57;;;;;;;4.38;1.33;;;1.00;99.90;;;;;;5012377;28;20049;-72
2022/12/08 07:49:22;;;;;;;4.65;1.25;;;1.00;99.90;;;;;;4992981;28;20050;-73
2022/12/08 07:51:48;;;;;;;3.25;1.20;;;1.00;99.90;;;;;;4991001;28;20042;-72
2022/12/08 07:54:14;;;;;;;4.70;1.10;;;0.90;99.90;;;;;;4973363;28;20058;-72
2022/12/08 07:56:39;;;;;;;4.38;1.25;;;0.90;99.90;;;;;;4990083;28;20475;-73
2022/12/08 07:59:05;;;;;;;3.70;1.08;;;0.90;99.90;;;;;;4973577;28;20453;-73
2022/12/08 08:01:32;;;;;;;7.15;1.33;;;0.80;99.90;;;;;;4983557;28;20038;-72
2022/12/08 08:04:01;;;;;;;9.45;1.40;;;0.80;99.90;;;;;;5010328;28;20056;-73
2022/12/08 08:06:27;;;;;;;5.63;1.00;;;0.80;99.90;;;;;;5008212;28;20485;-73
2022/12/08 08:08:53;;;;;;;3.42;1.33;;;0.80;99.90;;;;;;5009923;28;20519;-72
2022/12/08 08:11:19;;;;;;;4.10;1.30;;;0.80;99.90;;;;;;5009792;28;20050;-73
2022/12/08 08:13:45;;;;;;;5.43;1.45;;;0.70;99.90;;;;;;5009467;28;20053;-73
2022/12/08 08:16:12;;;;;;;5.03;1.40;;;0.70;99.90;;;;;;5020239;28;20042;-72
2022/12/08 08:18:39;;;;;;;4.20;1.55;;;0.70;99.90;;;;;;4992348;28;20125;-74
2022/12/08 08:21:05;;;;;;;4.65;1.65;;;0.70;99.90;;;;;;5024900;28;20045;-74
2022/12/08 08:23:31;;;;;;;5.47;1.70;;;0.70;99.90;;;;;;5029790;28;20045;-73
2022/12/08 08:26:01;;;;;;;9.38;2.05;;;0.60;99.90;;;;;;5029403;28;20448;-73
2022/12/08 08:28:28;;;;;;;9.52;1.58;;;0.60;99.90;;;;;;5028187;28;20049;-75
2022/12/08 08:30:54;;;;;;;3.65;1.20;;;0.60;99.90;;;;;;5027912;28;20033;-73
2022/12/08 08:33:20;;;;;;;7.68;1.90;;;0.60;99.90;;;;;;5016808;28;20382;-73
2022/12/08 08:35:46;;;;;;;4.03;1.58;;;0.60;99.90;;;;;;5010076;28;20049;-74
2022/12/08 08:38:12;;;;;;;6.82;1.77;;;0.60;99.90;;;;;;5009867;28;20404;-73
2022/12/08 08:40:37;;;;;;;3.50;1.50;;;0.60;99.90;;;;;;5010055;28;20046;-74
2022/12/08 08:43:04;;;;;;;4.30;1.52;;;0.60;99.90;;;;;;5010960;28;20045;-73
2022/12/08 08:45:31;;;;;;;7.82;1.35;;;0.60;99.90;;;;;;4991645;28;20127;-73
2022/12/08 08:47:57;;;;;;;4.70;1.40;;;0.50;99.90;;;;;;5009934;28;20405;-74
2022/12/08 08:50:22;;;;;;;4.47;1.33;;;0.60;99.90;;;;;;5009598;28;20058;-73
2022/12/08 08:52:49;;;;;;;9.70;1.67;;;0.50;99.90;;;;;;4992097;28;20140;-73
2022/12/08 08:55:14;;;;;;;6.03;1.50;;;0.50;99.90;;;;;;5009836;28;20061;-73
2022/12/08 08:57:40;;;;;;;7.72;1.38;;;0.60;99.90;;;;;;5009726;28;20050;-73
2022/12/08 09:00:08;;;;;;;5.60;1.67;;;0.60;99.90;;;;;;4991981;28;20041;-73
2022/12/08 09:02:35;;;;;;;4.82;1.30;;;0.60;99.90;;;;;;5009531;28;20050;-73
2022/12/08 09:05:01;;;;;;;3.67;1.40;;;0.60;99.90;;;;;;5010858;28;20095;-73
2022/12/08 09:07:27;;;;;;;3.88;1.25;;;0.70;99.90;;;;;;5013539;28;20057;-74
2022/12/08 09:09:52;;;;;;;9.50;1.55;;;0.70;99.90;;;;;;4980207;28;20058;-75
2022/12/08 09:12:18;;;;;;;2.55;1.27;;;0.70;99.90;;;;;;4979645;28;20050;-73
2022/12/08 09:14:44;;;;;;;4.03;1.60;;;0.80;99.90;;;;;;5013877;28;20041;-73
2022/12/08 09:17:10;;;;;;;6.85;1.55;;;0.90;99.90;;;;;;5013756;28;20100;-73
2022/12/08 09:19:36;;;;;;;10.75;1.67;;;0.90;99.90;;;;;;5014095;28;20411;-73
2022/12/08 09:22:02;;;;;;;9.32;2.10;;;0.90;99.90;;;;;;5013973;28;20042;-73
2022/12/08 09:24:27;;;;;;;4.75;1.58;;;1.00;99.90;;;;;;4997173;28;20045;-73
2022/12/08 09:26:53;;;;;;;8.13;1.98;;;1.10;99.90;;;;;;4996157;28;20052;-73
2022/12/08 09:29:19;;;;;;;7.38;1.83;;;1.20;99.90;;;;;;4996836;28;20489;-73
2022/12/08 09:31:44;;;;;;;4.45;1.20;;;1.20;99.90;;;;;;5013733;28;20050;-74
2022/12/08 09:34:11;;;;;;;6.85;1.38;;;1.40;99.90;;;;;;4995705;28;20050;-72
2022/12/08 09:36:37;;;;;;;6.10;1.70;;;1.50;99.90;;;;;;5012740;28;20165;-72
2022/12/08 09:39:03;;;;;;;3.28;1.30;;;1.60;99.90;;;;;;5016714;28;20608;-74
2022/12/08 09:41:58;;;;;;;7.35;1.40;;;1.80;99.90;;;;;;4995580;28;20038;-74
2022/12/08 09:44:32;;;;;;;3.22;1.30;;;1.90;99.90;;;;;;4955766;28;20113;-74
2022/12/08 09:47:00;;;;;;;6.50;1.40;;;2.00;99.90;;;;;;4955561;28;20055;-74
2022/12/08 09:49:35;;;;;;;8.35;2.35;;;2.00;99.90;;;;;;4956433;28;20051;-75
2022/12/08 09:52:02;;;;;;;6.00;1.50;;;2.10;99.90;;;;;;4956313;28;20055;-75
2022/12/08 09:54:34;;;;;;;7.82;1.55;;;2.10;99.90;;;;;;4973604;28;20054;-73
2022/12/08 09:57:06;;;;;;;7.43;2.05;;;2.30;99.90;;;;;;4956385;28;20090;-74
2022/12/08 09:59:33;;;;;;;5.20;1.90;;;2.30;99.90;;;;;;4972382;28;20064;-73
2022/12/08 10:02:00;;;;;;;11.00;2.25;;;2.50;99.90;;;;;;4971941;28;20278;-75
2022/12/08 10:04:32;;;;;;;6.57;1.75;;;2.50;99.90;;;;;;4972552;28;20055;-74
2022/12/08 10:07:35;;;;;;;6.18;2.17;;;2.50;99.90;;;;;;4958103;28;20046;-73
2022/12/08 10:10:21;;;;;;;4.55;1.70;;;2.50;99.90;;;;;;4991410;28;20046;-74
2022/12/08 10:13:02;;;;;;;7.00;1.50;;;2.60;99.90;;;;;;4971884;28;20047;-75
2022/12/08 10:15:48;;;;;;;5.47;2.08;;;2.60;99.90;;;;;;4971030;28;20137;-74
2022/12/08 10:18:26;;;;;;;5.88;1.90;;;2.80;99.90;;;;;;4954715;28;20054;-73
2022/12/08 10:20:53;;;;;;;6.32;2.17;;;3.00;99.90;;;;;;4947891;28;20073;-74
2022/12/08 10:23:29;;;;;;;9.52;2.38;;;3.20;99.90;;;;;;4991546;28;20093;-76
2022/12/08 10:26:02;;;;;;;9.38;2.00;;;3.40;99.90;;;;;;4975584;28;20078;-76
2022/12/08 10:28:27;;;;;;;8.35;2.17;;;4.10;99.90;;;;;;5001768;28;20120;-74
2022/12/08 10:30:53;;;;;;;9.93;2.35;;;3.70;99.90;;;;;;4994540;28;20130;-77
2022/12/08 10:33:20;;;;;;;5.72;2.03;;;3.90;99.90;;;;;;5012538;28;20042;-74
2022/12/08 10:35:55;;;;;;;7.10;2.08;;;4.10;99.90;;;;;;5012452;28;20050;-74
2022/12/08 10:38:29;;;;;;;8.18;2.10;;;4.30;99.90;;;;;;5012347;28;20487;-74
2022/12/08 10:41:11;;;;;;;7.72;2.35;;;4.50;99.90;;;;;;5011716;28;20066;-75
2022/12/08 10:43:43;;;;;;;13.05;2.15;;;4.70;99.90;;;;;;5012021;28;20049;-74
2022/12/08 10:46:16;;;;;;;6.72;2.10;;;4.90;99.90;;;;;;4994325;28;20034;-74
2022/12/08 10:48:54;;;;;;;9.82;2.15;;;5.20;99.90;;;;;;5012456;28;20045;-75
2022/12/08 10:51:34;;;;;;;11.10;1.73;;;5.30;99.90;;;;;;5011571;28;20147;-76
2022/12/08 10:53:59;;;;;;;10.35;1.80;;;5.60;99.90;;;;;;5012174;28;20100;-73
2022/12/08 10:56:29;;;;;;;5.30;1.33;;;5.70;99.90;;;;;;5012383;28;20501;-75
2022/12/08 10:59:17;;;;;;;6.65;1.70;;;5.70;99.90;;;;;;5012489;28;20170;-75
2022/12/08 11:01:48;;;;;;;9.85;1.48;;;5.70;99.90;;;;;;5011981;28;20386;-78
2022/12/08 11:04:37;;;;;;;9.82;1.75;;;5.80;99.90;;;;;;5011825;28;20038;-74
2022/12/08 11:07:10;;;;;;;4.78;1.17;;;5.60;99.90;;;;;;4973604;28;20047;-73
2022/12/08 11:09:47;;;;;;;3.92;1.20;;;5.60;99.90;;;;;;4990207;28;20062;-76
2022/12/08 11:12:18;;;;;;;7.43;1.45;;;5.50;99.90;;;;;;4989550;28;20054;-76
2022/12/08 11:14:43;;;;;;;6.80;1.50;;;5.40;99.90;;;;;;4989526;28;20066;-74
2022/12/08 11:17:26;;;;;;;7.72;1.83;;;5.30;99.90;;;;;;4989418;28;20043;-74
2022/12/08 11:19:56;;;;;;;8.13;1.50;;;5.30;99.90;;;;;;4956407;28;20050;-73
2022/12/08 11:22:40;;;;;;;4.75;1.17;;;5.40;99.90;;;;;;4970366;28;20098;-74
2022/12/08 11:25:06;;;;;;;7.13;1.53;;;5.50;99.90;;;;;;4970024;28;20851;-73
2022/12/08 11:27:36;;;;;;;8.27;1.33;;;5.60;99.90;;;;;;4953816;28;20058;-72
2022/12/08 11:30:12;;;;;;;4.47;1.27;;;5.70;99.90;;;;;;4968144;28;20047;-73
2022/12/08 11:32:41;;;;;;;7.32;1.70;;;5.80;99.90;;;;;;4969463;28;20129;-72
2022/12/08 11:35:15;;;;;;;5.70;1.52;;;5.70;99.90;;;;;;4970037;28;20139;-75
2022/12/08 11:37:42;;;;;;;11.32;1.48;;;6.30;99.90;;;;;;4970242;28;20059;-73
2022/12/08 11:40:20;;;;;;;5.65;1.30;;;5.50;99.90;;;;;;4957185;28;20501;-73
2022/12/08 11:43:08;;;;;;;6.25;1.25;;;5.60;99.90;;;;;;4989095;28;20046;-73
2022/12/08 11:45:35;;;;;;;4.82;1.30;;;5.60;99.90;;;;;;5013296;28;20053;-73
2022/12/08 11:48:09;;;;;;;4.60;1.38;;;5.50;99.90;;;;;;5030963;28;20430;-73
2022/12/08 11:50:40;;;;;;;5.50;1.23;;;5.50;99.90;;;;;;5028757;28;20061;-72
2022/12/08 11:53:15;;;;;;;5.35;1.40;;;5.50;99.90;;;;;;5031043;28;20123;-73
2022/12/08 11:55:48;;;;;;;7.85;1.33;;;5.30;99.90;;;;;;5013203;28;20049;-73
2022/12/08 11:58:37;;;;;;;6.60;1.38;;;5.20;99.90;;;;;;5030550;28;20153;-73
2022/12/08 12:01:02;;;;;;;6.40;1.17;;;5.20;99.90;;;;;;5011165;28;20065;-72
2022/12/08 12:03:42;;;;;;;7.40;1.60;;;5.20;99.90;;;;;;5029703;28;20495;-73
2022/12/08 12:06:17;;;;;;;6.85;1.67;;;5.10;99.90;;;;;;5000218;28;20049;-73
2022/12/08 12:09:33;;;;;;;4.65;1.45;;;5.00;99.90;;;;;;4991280;28;20042;-71
2022/12/08 12:12:31;;;;;;;9.23;1.73;;;4.90;99.90;;;;;;4944273;28;20147;-72
2022/12/08 12:15:30;;;;;;;8.43;1.40;;;4.80;99.90;;;;;;4892881;29;20108;-72
2022/12/08 12:18:02;;;;;;;3.22;1.00;;;4.70;99.90;;;;;;4892919;29;20089;-72
2022/12/08 12:20:33;;;;;;;7.35;0.98;;;4.70;99.90;;;;;;4893177;29;20060;-72
2022/12/08 12:23:11;;;;;;;6.80;1.17;;;4.60;99.90;;;;;;4877556;29;20258;-72
2022/12/08 12:25:44;;;;;;;6.45;1.20;;;4.70;99.90;;;;;;4892797;29;20049;-73
2022/12/08 12:28:12;;;;;;;5.03;1.25;;;4.80;99.90;;;;;;4876347;29;20056;-72
2022/12/08 12:30:59;;;;;;;5.88;1.10;;;5.00;99.90;;;;;;4893087;29;20048;-73
2022/12/08 12:33:25;;;;;;;7.53;1.20;;;5.20;99.90;;;;;;4892812;29;20234;-73
2022/12/08 12:35:54;;;;;;;5.50;1.38;;;5.40;99.90;;;;;;4892842;29;20529;-74
2022/12/08 12:41:09;;;;;;;5.43;1.20;;;5.80;99.90;;;;;;4892773;29;20120;-73
2022/12/08 12:43:37;;;;;;;6.10;1.27;;;6.20;99.90;;;;;;4894792;29;20860;-73
2022/12/08 12:46:36;;;;;;;7.15;1.50;;;6.00;99.90;;;;;;4899727;29;20066;-72
2022/12/08 12:49:39;;;;;;;5.03;1.20;;;6.00;99.90;;;;;;4911503;29;20048;-72
2022/12/08 12:52:22;;;;;;;8.05;1.20;;;5.90;99.90;;;;;;4984501;28;20592;-71
2022/12/08 12:54:48;;;;;;;3.50;1.10;;;5.90;99.90;;;;;;4996659;28;20124;-74
2022/12/08 12:57:18;;;;;;;15.88;1.85;;;5.90;99.90;;;;;;4996684;28;20042;-74
2022/12/08 12:59:51;;;;;;;8.68;1.95;;;5.80;99.90;;;;;;5014192;28;20046;-77
2022/12/08 13:02:27;;;;;;;6.60;1.33;;;5.80;99.90;;;;;;5014079;28;20100;-73
2022/12/08 13:05:14;;;;;;;5.95;1.50;;;5.70;99.90;;;;;;4996257;28;20137;-74
2022/12/08 13:08:15;;;;;;;10.02;1.60;;;5.60;99.90;;;;;;5014067;28;20081;-73
2022/12/08 13:10:59;;;;;;;3.13;0.95;;;5.60;99.90;;;;;;5014163;28;20064;-73
2022/12/08 13:13:26;;;;;;;6.93;1.55;;;5.60;99.90;;;;;;5014469;28;20046;-71
2022/12/08 13:16:15;;;;;;;7.03;1.45;;;5.60;99.90;;;;;;5020161;28;20045;-76
2022/12/08 13:18:47;;;;;;;7.68;1.40;;;5.70;99.90;;;;;;5013602;28;20073;-71
2022/12/08 13:21:15;;;;;;;5.75;1.00;;;5.80;99.90;;;;;;5009507;28;20144;-71